sensor_id;sensor_type;location;lat;lon;timestamp;temperature;humidity
44517;DHT22;30223;17.182;-96.766;2023-08-20T00:00:42;26.60;68.60
44517;DHT22;30223;17.182;-96.766;2023-08-20T00:03:12;26.50;68.20
44517;DHT22;30223;17.182;-96.766;2023-08-20T00:05:42;26.50;68.30
44517;DHT22;30223;17.182;-96.766;2023-08-20T00:08:09;26.50;68.20
44517;DHT22;30223;17.182;-96.766;2023-08-20T00:10:36;26.50;68.20
44517;DHT22;30223;17.182;-96.766;2023-08-20T00:13:03;26.50;68.00
44517;DHT22;30223;17.182;-96.766;2023-08-20T00:15:30;26.50;67.90
44517;DHT22;30223;17.182;-96.766;2023-08-20T00:17:57;26.50;68.00
44517;DHT22;30223;17.182;-96.766;2023-08-20T00:20:25;26.50;67.70
44517;DHT22;30223;17.182;-96.766;2023-08-20T00:22:52;26.50;67.70
44517;DHT22;30223;17.182;-96.766;2023-08-20T00:25:19;26.50;67.70
44517;DHT22;30223;17.182;-96.766;2023-08-20T00:27:46;26.50;67.40
44517;DHT22;30223;17.182;-96.766;2023-08-20T00:30:13;26.50;67.50
44517;DHT22;30223;17.182;-96.766;2023-08-20T00:32:40;26.50;67.70
44517;DHT22;30223;17.182;-96.766;2023-08-20T00:35:07;26.50;68.00
44517;DHT22;30223;17.182;-96.766;2023-08-20T00:37:34;26.50;68.20
44517;DHT22;30223;17.182;-96.766;2023-08-20T00:40:02;26.50;68.40
44517;DHT22;30223;17.182;-96.766;2023-08-20T00:42:31;26.50;68.40
44517;DHT22;30223;17.182;-96.766;2023-08-20T00:44:58;26.50;68.50
44517;DHT22;30223;17.182;-96.766;2023-08-20T00:47:25;26.50;68.50
44517;DHT22;30223;17.182;-96.766;2023-08-20T00:49:51;26.40;68.40
44517;DHT22;30223;17.182;-96.766;2023-08-20T00:52:21;26.40;68.50
44517;DHT22;30223;17.182;-96.766;2023-08-20T00:54:47;26.40;68.50
44517;DHT22;30223;17.182;-96.766;2023-08-20T00:57:15;26.40;68.50
44517;DHT22;30223;17.182;-96.766;2023-08-20T00:59:43;26.40;68.60
44517;DHT22;30223;17.182;-96.766;2023-08-20T01:02:11;26.40;68.60
44517;DHT22;30223;17.182;-96.766;2023-08-20T01:04:38;26.40;68.70
44517;DHT22;30223;17.182;-96.766;2023-08-20T01:07:52;26.40;68.60
44517;DHT22;30223;17.182;-96.766;2023-08-20T01:10:33;26.30;68.50
44517;DHT22;30223;17.182;-96.766;2023-08-20T01:12:52;26.30;68.50
44517;DHT22;30223;17.182;-96.766;2023-08-20T01:15:19;26.30;68.50
44517;DHT22;30223;17.182;-96.766;2023-08-20T01:17:46;26.30;68.50
44517;DHT22;30223;17.182;-96.766;2023-08-20T01:20:13;26.30;68.40
44517;DHT22;30223;17.182;-96.766;2023-08-20T01:28:40;26.30;68.60
44517;DHT22;30223;17.182;-96.766;2023-08-20T01:30:48;26.30;68.60
44517;DHT22;30223;17.182;-96.766;2023-08-20T01:33:16;26.30;68.70
44517;DHT22;30223;17.182;-96.766;2023-08-20T01:35:43;26.30;68.70
44517;DHT22;30223;17.182;-96.766;2023-08-20T01:38:10;26.20;68.60
44517;DHT22;30223;17.182;-96.766;2023-08-20T01:40:37;26.20;68.50
44517;DHT22;30223;17.182;-96.766;2023-08-20T01:43:04;26.20;68.60
44517;DHT22;30223;17.182;-96.766;2023-08-20T01:45:31;26.20;69.20
44517;DHT22;30223;17.182;-96.766;2023-08-20T01:47:58;26.20;68.60
44517;DHT22;30223;17.182;-96.766;2023-08-20T01:50:24;26.20;68.70
44517;DHT22;30223;17.182;-96.766;2023-08-20T01:52:51;26.20;68.60
44517;DHT22;30223;17.182;-96.766;2023-08-20T01:55:18;26.20;68.60
44517;DHT22;30223;17.182;-96.766;2023-08-20T01:57:45;26.10;68.50
44517;DHT22;30223;17.182;-96.766;2023-08-20T02:00:12;26.20;68.50
44517;DHT22;30223;17.182;-96.766;2023-08-20T02:02:39;26.10;68.30
44517;DHT22;30223;17.182;-96.766;2023-08-20T02:05:07;26.10;68.40
44517;DHT22;30223;17.182;-96.766;2023-08-20T02:07:34;26.10;68.40
44517;DHT22;30223;17.182;-96.766;2023-08-20T02:10:00;26.10;68.50
44517;DHT22;30223;17.182;-96.766;2023-08-20T02:12:28;26.10;69.00
44517;DHT22;30223;17.182;-96.766;2023-08-20T02:14:55;26.10;68.30
44517;DHT22;30223;17.182;-96.766;2023-08-20T02:17:22;26.10;68.20
44517;DHT22;30223;17.182;-96.766;2023-08-20T02:19:49;26.00;68.10
44517;DHT22;30223;17.182;-96.766;2023-08-20T02:22:16;26.10;68.10
44517;DHT22;30223;17.182;-96.766;2023-08-20T02:24:45;26.10;68.20
44517;DHT22;30223;17.182;-96.766;2023-08-20T02:27:12;26.00;68.10
44517;DHT22;30223;17.182;-96.766;2023-08-20T02:29:38;26.00;68.00
44517;DHT22;30223;17.182;-96.766;2023-08-20T02:32:05;26.00;68.00
44517;DHT22;30223;17.182;-96.766;2023-08-20T02:34:32;26.00;68.10
44517;DHT22;30223;17.182;-96.766;2023-08-20T02:36:59;26.00;68.00
44517;DHT22;30223;17.182;-96.766;2023-08-20T02:39:26;26.00;67.90
44517;DHT22;30223;17.182;-96.766;2023-08-20T02:41:53;26.00;68.00
44517;DHT22;30223;17.182;-96.766;2023-08-20T02:44:20;26.00;68.00
44517;DHT22;30223;17.182;-96.766;2023-08-20T02:46:46;26.00;68.00
44517;DHT22;30223;17.182;-96.766;2023-08-20T02:49:13;26.00;68.00
44517;DHT22;30223;17.182;-96.766;2023-08-20T02:51:43;25.90;67.90
44517;DHT22;30223;17.182;-96.766;2023-08-20T02:54:10;25.90;67.80
44517;DHT22;30223;17.182;-96.766;2023-08-20T02:56:37;25.90;67.80
44517;DHT22;30223;17.182;-96.766;2023-08-20T02:59:04;25.90;67.80
44517;DHT22;30223;17.182;-96.766;2023-08-20T03:01:31;25.90;67.80
44517;DHT22;30223;17.182;-96.766;2023-08-20T03:03:57;25.90;67.80
44517;DHT22;30223;17.182;-96.766;2023-08-20T03:06:24;25.80;67.80
44517;DHT22;30223;17.182;-96.766;2023-08-20T03:08:51;25.80;67.80
44517;DHT22;30223;17.182;-96.766;2023-08-20T03:11:18;25.80;67.80
44517;DHT22;30223;17.182;-96.766;2023-08-20T03:13:45;25.80;68.30
44517;DHT22;30223;17.182;-96.766;2023-08-20T03:16:12;25.80;67.70
44517;DHT22;30223;17.182;-96.766;2023-08-20T03:18:39;25.80;67.70
44517;DHT22;30223;17.182;-96.766;2023-08-20T03:21:05;25.80;67.70
44517;DHT22;30223;17.182;-96.766;2023-08-20T03:23:32;25.80;67.70
44517;DHT22;30223;17.182;-96.766;2023-08-20T03:25:59;25.80;67.70
44517;DHT22;30223;17.182;-96.766;2023-08-20T03:28:26;25.80;67.70
44517;DHT22;30223;17.182;-96.766;2023-08-20T03:30:53;25.80;67.60
44517;DHT22;30223;17.182;-96.766;2023-08-20T03:33:19;25.80;67.70
44517;DHT22;30223;17.182;-96.766;2023-08-20T03:35:46;25.70;67.60
44517;DHT22;30223;17.182;-96.766;2023-08-20T03:38:13;25.70;67.60
44517;DHT22;30223;17.182;-96.766;2023-08-20T03:40:40;25.70;67.60
44517;DHT22;30223;17.182;-96.766;2023-08-20T03:43:07;25.70;68.10
44517;DHT22;30223;17.182;-96.766;2023-08-20T03:45:34;25.70;67.60
44517;DHT22;30223;17.182;-96.766;2023-08-20T03:48:00;25.70;67.50
44517;DHT22;30223;17.182;-96.766;2023-08-20T03:50:27;25.70;67.50
44517;DHT22;30223;17.182;-96.766;2023-08-20T03:52:54;25.70;67.50
44517;DHT22;30223;17.182;-96.766;2023-08-20T03:55:21;25.60;67.40
44517;DHT22;30223;17.182;-96.766;2023-08-20T03:57:48;25.60;67.40
44517;DHT22;30223;17.182;-96.766;2023-08-20T04:00:15;25.60;67.40
44517;DHT22;30223;17.182;-96.766;2023-08-20T04:02:42;25.60;67.40
44517;DHT22;30223;17.182;-96.766;2023-08-20T04:05:08;25.60;67.40
44517;DHT22;30223;17.182;-96.766;2023-08-20T04:07:35;25.60;67.40
44517;DHT22;30223;17.182;-96.766;2023-08-20T04:10:02;25.60;67.30
44517;DHT22;30223;17.182;-96.766;2023-08-20T04:12:29;25.60;67.30
44517;DHT22;30223;17.182;-96.766;2023-08-20T04:14:56;25.50;67.30
44517;DHT22;30223;17.182;-96.766;2023-08-20T04:17:23;25.50;67.30
44517;DHT22;30223;17.182;-96.766;2023-08-20T04:19:50;25.50;67.20
44517;DHT22;30223;17.182;-96.766;2023-08-20T04:22:16;25.50;67.20
44517;DHT22;30223;17.182;-96.766;2023-08-20T04:24:43;25.50;67.20
44517;DHT22;30223;17.182;-96.766;2023-08-20T04:27:10;25.50;67.20
44517;DHT22;30223;17.182;-96.766;2023-08-20T04:29:37;25.50;67.30
44517;DHT22;30223;17.182;-96.766;2023-08-20T04:32:04;25.50;67.20
44517;DHT22;30223;17.182;-96.766;2023-08-20T04:34:31;25.50;67.20
44517;DHT22;30223;17.182;-96.766;2023-08-20T04:36:58;25.50;67.20
44517;DHT22;30223;17.182;-96.766;2023-08-20T04:39:25;25.50;67.20
44517;DHT22;30223;17.182;-96.766;2023-08-20T04:41:52;25.50;67.20
44517;DHT22;30223;17.182;-96.766;2023-08-20T04:44:19;25.40;67.10
44517;DHT22;30223;17.182;-96.766;2023-08-20T04:46:46;25.40;67.10
44517;DHT22;30223;17.182;-96.766;2023-08-20T04:49:12;25.40;67.10
44517;DHT22;30223;17.182;-96.766;2023-08-20T04:51:39;25.40;67.10
44517;DHT22;30223;17.182;-96.766;2023-08-20T04:54:06;25.30;67.10
44517;DHT22;30223;17.182;-96.766;2023-08-20T04:56:33;25.30;67.10
44517;DHT22;30223;17.182;-96.766;2023-08-20T04:58:59;25.30;67.10
44517;DHT22;30223;17.182;-96.766;2023-08-20T05:01:26;25.40;67.20
44517;DHT22;30223;17.182;-96.766;2023-08-20T05:03:53;25.30;67.00
44517;DHT22;30223;17.182;-96.766;2023-08-20T05:06:20;25.30;67.00
44517;DHT22;30223;17.182;-96.766;2023-08-20T05:08:47;25.30;67.00
44517;DHT22;30223;17.182;-96.766;2023-08-20T05:11:13;25.30;67.10
44517;DHT22;30223;17.182;-96.766;2023-08-20T05:13:40;25.30;67.00
44517;DHT22;30223;17.182;-96.766;2023-08-20T05:16:07;25.30;67.00
44517;DHT22;30223;17.182;-96.766;2023-08-20T05:18:34;25.30;67.00
44517;DHT22;30223;17.182;-96.766;2023-08-20T05:21:01;25.30;67.00
44517;DHT22;30223;17.182;-96.766;2023-08-20T05:23:27;25.20;67.00
44517;DHT22;30223;17.182;-96.766;2023-08-20T05:25:54;25.20;67.00
44517;DHT22;30223;17.182;-96.766;2023-08-20T05:28:21;25.20;67.00
44517;DHT22;30223;17.182;-96.766;2023-08-20T05:30:57;25.20;67.00
44517;DHT22;30223;17.182;-96.766;2023-08-20T05:33:24;25.20;67.00
44517;DHT22;30223;17.182;-96.766;2023-08-20T05:35:51;25.20;66.90
44517;DHT22;30223;17.182;-96.766;2023-08-20T05:38:18;25.20;67.00
44517;DHT22;30223;17.182;-96.766;2023-08-20T05:40:45;25.20;66.90
44517;DHT22;30223;17.182;-96.766;2023-08-20T05:43:12;25.20;66.90
44517;DHT22;30223;17.182;-96.766;2023-08-20T05:45:38;25.20;67.00
44517;DHT22;30223;17.182;-96.766;2023-08-20T05:48:05;25.20;66.90
44517;DHT22;30223;17.182;-96.766;2023-08-20T05:50:32;25.10;66.90
44517;DHT22;30223;17.182;-96.766;2023-08-20T05:53:01;25.10;66.90
44517;DHT22;30223;17.182;-96.766;2023-08-20T05:55:27;25.10;66.90
44517;DHT22;30223;17.182;-96.766;2023-08-20T05:57:54;25.10;66.90
44517;DHT22;30223;17.182;-96.766;2023-08-20T06:00:21;25.10;66.90
44517;DHT22;30223;17.182;-96.766;2023-08-20T06:02:48;25.10;66.90
44517;DHT22;30223;17.182;-96.766;2023-08-20T06:05:15;25.00;66.80
44517;DHT22;30223;17.182;-96.766;2023-08-20T06:07:42;25.00;66.80
44517;DHT22;30223;17.182;-96.766;2023-08-20T06:10:09;25.00;66.80
44517;DHT22;30223;17.182;-96.766;2023-08-20T06:12:36;25.00;66.70
44517;DHT22;30223;17.182;-96.766;2023-08-20T06:15:03;25.00;66.70
44517;DHT22;30223;17.182;-96.766;2023-08-20T06:17:30;25.00;66.70
44517;DHT22;30223;17.182;-96.766;2023-08-20T06:19:57;25.00;66.70
44517;DHT22;30223;17.182;-96.766;2023-08-20T06:22:23;25.00;66.70
44517;DHT22;30223;17.182;-96.766;2023-08-20T06:24:50;25.00;66.70
44517;DHT22;30223;17.182;-96.766;2023-08-20T06:27:18;25.00;66.70
44517;DHT22;30223;17.182;-96.766;2023-08-20T06:29:45;25.00;66.70
44517;DHT22;30223;17.182;-96.766;2023-08-20T06:32:12;24.90;66.60
44517;DHT22;30223;17.182;-96.766;2023-08-20T06:34:38;24.90;66.60
44517;DHT22;30223;17.182;-96.766;2023-08-20T06:37:05;24.90;66.50
44517;DHT22;30223;17.182;-96.766;2023-08-20T06:39:32;24.90;66.50
44517;DHT22;30223;17.182;-96.766;2023-08-20T06:41:59;24.90;66.60
44517;DHT22;30223;17.182;-96.766;2023-08-20T06:44:26;24.90;66.60
44517;DHT22;30223;17.182;-96.766;2023-08-20T06:46:52;24.80;66.50
44517;DHT22;30223;17.182;-96.766;2023-08-20T06:49:19;24.80;66.50
44517;DHT22;30223;17.182;-96.766;2023-08-20T06:51:46;24.90;66.50
44517;DHT22;30223;17.182;-96.766;2023-08-20T06:54:15;24.80;66.50
44517;DHT22;30223;17.182;-96.766;2023-08-20T06:56:45;24.80;67.10
44517;DHT22;30223;17.182;-96.766;2023-08-20T06:59:11;24.80;66.50
44517;DHT22;30223;17.182;-96.766;2023-08-20T07:01:38;24.80;66.40
44517;DHT22;30223;17.182;-96.766;2023-08-20T07:04:05;24.80;66.40
44517;DHT22;30223;17.182;-96.766;2023-08-20T07:06:32;24.80;66.40
44517;DHT22;30223;17.182;-96.766;2023-08-20T07:08:59;24.80;66.40
44517;DHT22;30223;17.182;-96.766;2023-08-20T07:11:26;24.70;66.40
44517;DHT22;30223;17.182;-96.766;2023-08-20T07:13:52;24.70;66.30
44517;DHT22;30223;17.182;-96.766;2023-08-20T07:16:19;24.70;66.30
44517;DHT22;30223;17.182;-96.766;2023-08-20T07:18:46;24.70;66.30
44517;DHT22;30223;17.182;-96.766;2023-08-20T07:21:13;24.70;66.30
44517;DHT22;30223;17.182;-96.766;2023-08-20T07:23:40;24.70;66.30
44517;DHT22;30223;17.182;-96.766;2023-08-20T07:26:10;24.70;66.30
44517;DHT22;30223;17.182;-96.766;2023-08-20T07:28:41;24.60;66.20
44517;DHT22;30223;17.182;-96.766;2023-08-20T07:31:27;24.70;66.20
44517;DHT22;30223;17.182;-96.766;2023-08-20T07:33:55;24.60;66.20
44517;DHT22;30223;17.182;-96.766;2023-08-20T07:36:24;24.60;66.20
44517;DHT22;30223;17.182;-96.766;2023-08-20T07:38:52;24.60;66.20
44517;DHT22;30223;17.182;-96.766;2023-08-20T07:41:20;24.60;66.20
44517;DHT22;30223;17.182;-96.766;2023-08-20T07:43:48;24.60;66.20
44517;DHT22;30223;17.182;-96.766;2023-08-20T07:46:15;24.60;66.20
44517;DHT22;30223;17.182;-96.766;2023-08-20T07:48:42;24.50;66.10
44517;DHT22;30223;17.182;-96.766;2023-08-20T07:51:10;24.60;66.10
44517;DHT22;30223;17.182;-96.766;2023-08-20T07:53:36;24.50;66.10
44517;DHT22;30223;17.182;-96.766;2023-08-20T07:56:03;24.50;66.10
44517;DHT22;30223;17.182;-96.766;2023-08-20T07:58:30;24.50;66.10
44517;DHT22;30223;17.182;-96.766;2023-08-20T08:00:57;24.50;66.10
44517;DHT22;30223;17.182;-96.766;2023-08-20T08:03:25;24.50;66.10
44517;DHT22;30223;17.182;-96.766;2023-08-20T08:05:53;24.50;66.10
44517;DHT22;30223;17.182;-96.766;2023-08-20T08:08:23;24.50;66.00
44517;DHT22;30223;17.182;-96.766;2023-08-20T08:10:50;24.50;66.00
44517;DHT22;30223;17.182;-96.766;2023-08-20T08:13:22;24.50;66.00
44517;DHT22;30223;17.182;-96.766;2023-08-20T08:15:49;24.50;66.00
44517;DHT22;30223;17.182;-96.766;2023-08-20T08:18:17;24.50;66.10
44517;DHT22;30223;17.182;-96.766;2023-08-20T08:20:44;24.40;66.00
44517;DHT22;30223;17.182;-96.766;2023-08-20T08:23:11;24.40;66.00
44517;DHT22;30223;17.182;-96.766;2023-08-20T08:25:38;24.40;66.00
44517;DHT22;30223;17.182;-96.766;2023-08-20T08:28:05;24.40;65.90
44517;DHT22;30223;17.182;-96.766;2023-08-20T08:30:32;24.30;65.90
44517;DHT22;30223;17.182;-96.766;2023-08-20T08:32:59;24.40;65.90
44517;DHT22;30223;17.182;-96.766;2023-08-20T08:35:26;24.30;65.80
44517;DHT22;30223;17.182;-96.766;2023-08-20T08:37:53;24.30;65.80
44517;DHT22;30223;17.182;-96.766;2023-08-20T08:40:20;24.30;65.80
44517;DHT22;30223;17.182;-96.766;2023-08-20T08:42:50;24.30;65.80
44517;DHT22;30223;17.182;-96.766;2023-08-20T08:45:18;24.30;65.80
44517;DHT22;30223;17.182;-96.766;2023-08-20T08:47:49;24.30;65.70
44517;DHT22;30223;17.182;-96.766;2023-08-20T08:50:17;24.20;65.70
44517;DHT22;30223;17.182;-96.766;2023-08-20T08:52:45;24.30;65.70
44517;DHT22;30223;17.182;-96.766;2023-08-20T08:55:13;24.30;66.30
44517;DHT22;30223;17.182;-96.766;2023-08-20T08:57:40;24.20;65.70
44517;DHT22;30223;17.182;-96.766;2023-08-20T09:00:07;24.20;65.70
44517;DHT22;30223;17.182;-96.766;2023-08-20T09:02:35;24.20;65.70
44517;DHT22;30223;17.182;-96.766;2023-08-20T09:05:01;24.20;65.70
44517;DHT22;30223;17.182;-96.766;2023-08-20T09:07:28;24.10;65.60
44517;DHT22;30223;17.182;-96.766;2023-08-20T09:09:58;24.10;65.60
44517;DHT22;30223;17.182;-96.766;2023-08-20T09:12:28;24.10;65.60
44517;DHT22;30223;17.182;-96.766;2023-08-20T09:15:00;24.10;65.60
44517;DHT22;30223;17.182;-96.766;2023-08-20T09:17:29;24.10;65.60
44517;DHT22;30223;17.182;-96.766;2023-08-20T09:19:56;24.10;65.60
44517;DHT22;30223;17.182;-96.766;2023-08-20T09:22:27;24.00;65.60
44517;DHT22;30223;17.182;-96.766;2023-08-20T09:24:55;24.00;65.50
44517;DHT22;30223;17.182;-96.766;2023-08-20T09:27:23;24.00;65.60
44517;DHT22;30223;17.182;-96.766;2023-08-20T09:29:54;24.00;65.60
44517;DHT22;30223;17.182;-96.766;2023-08-20T09:32:23;24.00;65.50
44517;DHT22;30223;17.182;-96.766;2023-08-20T09:34:51;24.00;65.60
44517;DHT22;30223;17.182;-96.766;2023-08-20T09:37:23;23.90;65.50
44517;DHT22;30223;17.182;-96.766;2023-08-20T09:39:51;23.90;65.50
44517;DHT22;30223;17.182;-96.766;2023-08-20T09:42:17;23.90;65.50
44517;DHT22;30223;17.182;-96.766;2023-08-20T09:44:46;23.90;65.50
44517;DHT22;30223;17.182;-96.766;2023-08-20T09:47:16;23.90;65.50
44517;DHT22;30223;17.182;-96.766;2023-08-20T09:49:44;23.90;65.50
44517;DHT22;30223;17.182;-96.766;2023-08-20T09:52:16;23.90;65.50
44517;DHT22;30223;17.182;-96.766;2023-08-20T09:54:59;23.80;65.40
44517;DHT22;30223;17.182;-96.766;2023-08-20T09:57:38;23.80;65.50
44517;DHT22;30223;17.182;-96.766;2023-08-20T10:00:07;23.80;66.10
44517;DHT22;30223;17.182;-96.766;2023-08-20T10:02:41;23.80;65.40
44517;DHT22;30223;17.182;-96.766;2023-08-20T10:05:12;23.80;65.40
44517;DHT22;30223;17.182;-96.766;2023-08-20T10:07:40;23.80;65.40
44517;DHT22;30223;17.182;-96.766;2023-08-20T10:10:09;23.70;65.30
44517;DHT22;30223;17.182;-96.766;2023-08-20T10:12:40;23.70;65.40
44517;DHT22;30223;17.182;-96.766;2023-08-20T10:15:08;23.80;65.40
44517;DHT22;30223;17.182;-96.766;2023-08-20T10:17:38;23.70;65.40
44517;DHT22;30223;17.182;-96.766;2023-08-20T10:20:05;23.70;65.40
44517;DHT22;30223;17.182;-96.766;2023-08-20T10:22:41;23.60;65.40
44517;DHT22;30223;17.182;-96.766;2023-08-20T10:25:12;23.70;65.40
44517;DHT22;30223;17.182;-96.766;2023-08-20T10:27:41;23.60;65.30
44517;DHT22;30223;17.182;-96.766;2023-08-20T10:30:18;23.70;65.40
44517;DHT22;30223;17.182;-96.766;2023-08-20T10:32:49;23.60;65.40
44517;DHT22;30223;17.182;-96.766;2023-08-20T10:35:26;23.60;65.40
44517;DHT22;30223;17.182;-96.766;2023-08-20T10:38:13;23.50;65.30
44517;DHT22;30223;17.182;-96.766;2023-08-20T10:40:59;23.60;65.40
44517;DHT22;30223;17.182;-96.766;2023-08-20T10:46:16;23.50;65.30
44517;DHT22;30223;17.182;-96.766;2023-08-20T10:48:53;23.50;65.30
44517;DHT22;30223;17.182;-96.766;2023-08-20T10:51:36;23.50;65.30
44517;DHT22;30223;17.182;-96.766;2023-08-20T10:54:05;23.50;65.40
44517;DHT22;30223;17.182;-96.766;2023-08-20T10:56:45;23.40;65.30
44517;DHT22;30223;17.182;-96.766;2023-08-20T11:01:50;23.40;65.30
44517;DHT22;30223;17.182;-96.766;2023-08-20T11:04:19;23.40;65.30
44517;DHT22;30223;17.182;-96.766;2023-08-20T11:06:49;23.40;65.30
44517;DHT22;30223;17.182;-96.766;2023-08-20T11:09:16;23.30;65.20
44517;DHT22;30223;17.182;-96.766;2023-08-20T11:11:44;23.30;65.20
44517;DHT22;30223;17.182;-96.766;2023-08-20T11:14:14;23.30;65.20
44517;DHT22;30223;17.182;-96.766;2023-08-20T11:16:43;23.30;65.30
44517;DHT22;30223;17.182;-96.766;2023-08-20T11:19:13;23.30;65.30
44517;DHT22;30223;17.182;-96.766;2023-08-20T11:21:43;23.20;65.20
44517;DHT22;30223;17.182;-96.766;2023-08-20T11:24:10;23.20;65.30
44517;DHT22;30223;17.182;-96.766;2023-08-20T11:26:42;23.20;65.20
44517;DHT22;30223;17.182;-96.766;2023-08-20T11:29:10;23.20;65.30
44517;DHT22;30223;17.182;-96.766;2023-08-20T11:31:39;23.20;65.30
44517;DHT22;30223;17.182;-96.766;2023-08-20T11:34:06;23.20;65.20
44517;DHT22;30223;17.182;-96.766;2023-08-20T11:36:34;23.20;65.20
44517;DHT22;30223;17.182;-96.766;2023-08-20T11:39:01;23.20;65.30
44517;DHT22;30223;17.182;-96.766;2023-08-20T11:41:28;23.10;65.20
44517;DHT22;30223;17.182;-96.766;2023-08-20T11:43:56;23.10;65.20
44517;DHT22;30223;17.182;-96.766;2023-08-20T11:46:24;23.10;65.20
44517;DHT22;30223;17.182;-96.766;2023-08-20T11:49:05;23.10;65.20
44517;DHT22;30223;17.182;-96.766;2023-08-20T11:51:39;23.10;65.20
44517;DHT22;30223;17.182;-96.766;2023-08-20T11:54:12;23.10;65.20
44517;DHT22;30223;17.182;-96.766;2023-08-20T11:56:46;23.10;65.20
44517;DHT22;30223;17.182;-96.766;2023-08-20T11:59:15;23.00;65.10
44517;DHT22;30223;17.182;-96.766;2023-08-20T12:01:42;23.00;65.10
44517;DHT22;30223;17.182;-96.766;2023-08-20T12:04:10;23.00;65.10
44517;DHT22;30223;17.182;-96.766;2023-08-20T12:06:38;23.00;65.10
44517;DHT22;30223;17.182;-96.766;2023-08-20T12:09:22;23.00;65.10
44517;DHT22;30223;17.182;-96.766;2023-08-20T12:11:54;22.90;65.10
44517;DHT22;30223;17.182;-96.766;2023-08-20T12:14:24;22.90;65.00
44517;DHT22;30223;17.182;-96.766;2023-08-20T12:16:53;22.90;65.00
44517;DHT22;30223;17.182;-96.766;2023-08-20T12:19:20;22.90;65.70
44517;DHT22;30223;17.182;-96.766;2023-08-20T12:21:47;22.90;65.00
44517;DHT22;30223;17.182;-96.766;2023-08-20T12:24:15;22.90;65.00
44517;DHT22;30223;17.182;-96.766;2023-08-20T12:26:42;22.90;65.00
44517;DHT22;30223;17.182;-96.766;2023-08-20T12:29:09;22.90;65.00
44517;DHT22;30223;17.182;-96.766;2023-08-20T12:31:36;22.90;65.00
44517;DHT22;30223;17.182;-96.766;2023-08-20T12:34:03;22.80;65.50
44517;DHT22;30223;17.182;-96.766;2023-08-20T12:36:30;22.80;64.90
44517;DHT22;30223;17.182;-96.766;2023-08-20T12:38:57;22.80;65.00
44517;DHT22;30223;17.182;-96.766;2023-08-20T12:41:24;22.80;65.00
44517;DHT22;30223;17.182;-96.766;2023-08-20T12:43:51;22.80;64.90
44517;DHT22;30223;17.182;-96.766;2023-08-20T12:46:18;22.80;65.00
44517;DHT22;30223;17.182;-96.766;2023-08-20T12:48:46;22.80;64.90
44517;DHT22;30223;17.182;-96.766;2023-08-20T12:51:13;22.80;64.90
44517;DHT22;30223;17.182;-96.766;2023-08-20T12:53:42;22.70;64.90
44517;DHT22;30223;17.182;-96.766;2023-08-20T12:56:09;22.80;64.90
44517;DHT22;30223;17.182;-96.766;2023-08-20T12:58:36;22.70;64.80
44517;DHT22;30223;17.182;-96.766;2023-08-20T13:01:03;22.70;64.80
44517;DHT22;30223;17.182;-96.766;2023-08-20T13:03:31;22.70;64.90
44517;DHT22;30223;17.182;-96.766;2023-08-20T13:05:58;22.70;64.80
44517;DHT22;30223;17.182;-96.766;2023-08-20T13:08:25;22.70;64.80
44517;DHT22;30223;17.182;-96.766;2023-08-20T13:10:57;22.60;64.80
44517;DHT22;30223;17.182;-96.766;2023-08-20T13:13:25;22.60;64.80
44517;DHT22;30223;17.182;-96.766;2023-08-20T13:15:52;22.60;64.80
44517;DHT22;30223;17.182;-96.766;2023-08-20T13:18:20;22.60;64.80
44517;DHT22;30223;17.182;-96.766;2023-08-20T13:20:52;22.60;64.80
44517;DHT22;30223;17.182;-96.766;2023-08-20T13:23:19;22.60;64.80
44517;DHT22;30223;17.182;-96.766;2023-08-20T13:25:46;22.60;64.80
44517;DHT22;30223;17.182;-96.766;2023-08-20T13:28:13;22.50;64.80
44517;DHT22;30223;17.182;-96.766;2023-08-20T13:30:40;22.50;64.70
44517;DHT22;30223;17.182;-96.766;2023-08-20T13:33:07;22.50;64.80
44517;DHT22;30223;17.182;-96.766;2023-08-20T13:35:34;22.50;64.80
44517;DHT22;30223;17.182;-96.766;2023-08-20T13:38:02;22.50;64.80
44517;DHT22;30223;17.182;-96.766;2023-08-20T13:40:30;22.50;64.80
44517;DHT22;30223;17.182;-96.766;2023-08-20T13:42:57;22.50;64.80
44517;DHT22;30223;17.182;-96.766;2023-08-20T13:45:24;22.50;64.80
44517;DHT22;30223;17.182;-96.766;2023-08-20T13:47:51;22.40;64.80
44517;DHT22;30223;17.182;-96.766;2023-08-20T13:50:18;22.50;64.80
44517;DHT22;30223;17.182;-96.766;2023-08-20T13:52:45;22.40;64.80
44517;DHT22;30223;17.182;-96.766;2023-08-20T13:55:12;22.40;64.80
44517;DHT22;30223;17.182;-96.766;2023-08-20T13:57:38;22.40;64.80
44517;DHT22;30223;17.182;-96.766;2023-08-20T14:00:06;22.50;64.90
44517;DHT22;30223;17.182;-96.766;2023-08-20T14:02:39;22.40;64.80
44517;DHT22;30223;17.182;-96.766;2023-08-20T14:05:06;22.40;64.80
44517;DHT22;30223;17.182;-96.766;2023-08-20T14:07:33;22.40;64.80
44517;DHT22;30223;17.182;-96.766;2023-08-20T14:10:01;22.40;64.80
44517;DHT22;30223;17.182;-96.766;2023-08-20T14:12:29;22.40;64.90
44517;DHT22;30223;17.182;-96.766;2023-08-20T14:14:56;22.40;64.90
44517;DHT22;30223;17.182;-96.766;2023-08-20T14:17:23;22.40;64.90
44517;DHT22;30223;17.182;-96.766;2023-08-20T14:19:49;22.40;64.90
44517;DHT22;30223;17.182;-96.766;2023-08-20T14:22:18;22.40;64.90
44517;DHT22;30223;17.182;-96.766;2023-08-20T14:24:45;22.40;64.90
44517;DHT22;30223;17.182;-96.766;2023-08-20T14:27:12;22.40;65.00
44517;DHT22;30223;17.182;-96.766;2023-08-20T14:29:40;22.30;64.90
44517;DHT22;30223;17.182;-96.766;2023-08-20T14:32:07;22.30;65.00
44517;DHT22;30223;17.182;-96.766;2023-08-20T14:34:33;22.30;65.10
44517;DHT22;30223;17.182;-96.766;2023-08-20T14:37:00;22.30;65.10
44517;DHT22;30223;17.182;-96.766;2023-08-20T14:39:27;22.30;65.10
44517;DHT22;30223;17.182;-96.766;2023-08-20T14:41:57;22.30;65.10
44517;DHT22;30223;17.182;-96.766;2023-08-20T14:44:24;22.40;65.10
44517;DHT22;30223;17.182;-96.766;2023-08-20T14:46:51;22.30;65.10
44517;DHT22;30223;17.182;-96.766;2023-08-20T14:49:18;22.30;65.10
44517;DHT22;30223;17.182;-96.766;2023-08-20T14:51:45;22.40;65.10
44517;DHT22;30223;17.182;-96.766;2023-08-20T14:54:12;22.30;65.10
44517;DHT22;30223;17.182;-96.766;2023-08-20T14:56:38;22.30;65.10
44517;DHT22;30223;17.182;-96.766;2023-08-20T14:59:05;22.30;65.10
44517;DHT22;30223;17.182;-96.766;2023-08-20T15:01:32;22.40;65.10
44517;DHT22;30223;17.182;-96.766;2023-08-20T15:03:59;22.40;65.10
44517;DHT22;30223;17.182;-96.766;2023-08-20T15:06:26;22.40;65.10
44517;DHT22;30223;17.182;-96.766;2023-08-20T15:08:53;22.40;65.10
44517;DHT22;30223;17.182;-96.766;2023-08-20T15:11:20;22.40;65.10
44517;DHT22;30223;17.182;-96.766;2023-08-20T15:13:46;22.40;65.10
44517;DHT22;30223;17.182;-96.766;2023-08-20T15:16:13;22.40;65.00
44517;DHT22;30223;17.182;-96.766;2023-08-20T15:18:40;22.40;65.10